Terminal Aerodrome Forecast
Issued by NWS Missoula, MT

Home | Current Version | Previous Version | Text Only | Print | Product List | Glossary On
Versions: 1 2 3 4 5 6 7 8 9 10 11 12 13 14 15 16 17 18 19 20 21 22 23 24
492
FTUS45 KMSO 222338
TAFGPI
TAF
KGPI 222338Z 2300/2324 VRB05KT P6SM SCT100 BKN150
     FM230500 02007KT P6SM VCSH SCT060 BKN080
     FM230730 02005KT 2SM -SN BKN020 OVC030
     FM231400 02005KT 4SM -SN BKN025 OVC035
     FM231600 02007KT P6SM VCSH BKN035 OVC045=

USA.gov is the U.S. government's official web portal to all federal, state and local government web resources and services.